sensor_id;sensor_type;location;lat;lon;timestamp;temperature;humidity
9179;DHT22;71287;48.414;11.478;2024-03-02T00:01:16;7.60;99.90
9179;DHT22;71287;48.414;11.478;2024-03-02T00:03:42;7.60;99.90
9179;DHT22;71287;48.414;11.478;2024-03-02T00:06:10;7.50;99.90
9179;DHT22;71287;48.414;11.478;2024-03-02T00:08:37;7.50;99.90
9179;DHT22;71287;48.414;11.478;2024-03-02T00:11:04;7.40;99.90
9179;DHT22;71287;48.414;11.478;2024-03-02T00:13:31;7.30;99.90
9179;DHT22;71287;48.414;11.478;2024-03-02T00:15:59;7.20;99.90
9179;DHT22;71287;48.414;11.478;2024-03-02T00:18:31;7.20;99.90
9179;DHT22;71287;48.414;11.478;2024-03-02T00:20:59;7.20;99.90
9179;DHT22;71287;48.414;11.478;2024-03-02T00:23:29;7.20;99.90
9179;DHT22;71287;48.414;11.478;2024-03-02T00:25:56;7.10;99.90
9179;DHT22;71287;48.414;11.478;2024-03-02T00:28:24;7.10;99.90
9179;DHT22;71287;48.414;11.478;2024-03-02T00:33:32;7.10;99.90
9179;DHT22;71287;48.414;11.478;2024-03-02T00:36:00;7.00;99.90
9179;DHT22;71287;48.414;11.478;2024-03-02T00:38:27;6.90;99.90
9179;DHT22;71287;48.414;11.478;2024-03-02T00:40:54;6.90;99.90
9179;DHT22;71287;48.414;11.478;2024-03-02T00:43:41;6.80;99.90
9179;DHT22;71287;48.414;11.478;2024-03-02T00:46:12;6.80;99.90
9179;DHT22;71287;48.414;11.478;2024-03-02T00:48:45;6.80;99.90
9179;DHT22;71287;48.414;11.478;2024-03-02T00:51:14;6.70;99.90
9179;DHT22;71287;48.414;11.478;2024-03-02T00:53:41;6.70;99.90
9179;DHT22;71287;48.414;11.478;2024-03-02T00:56:09;6.70;99.90
9179;DHT22;71287;48.414;11.478;2024-03-02T00:58:37;6.70;99.90
9179;DHT22;71287;48.414;11.478;2024-03-02T01:01:04;6.70;99.90
9179;DHT22;71287;48.414;11.478;2024-03-02T01:03:31;6.70;99.90
9179;DHT22;71287;48.414;11.478;2024-03-02T01:06:00;6.80;99.90
9179;DHT22;71287;48.414;11.478;2024-03-02T01:08:26;6.80;99.90
9179;DHT22;71287;48.414;11.478;2024-03-02T01:10:54;6.80;99.90
9179;DHT22;71287;48.414;11.478;2024-03-02T01:13:21;6.80;99.90
9179;DHT22;71287;48.414;11.478;2024-03-02T01:15:48;6.90;99.90
9179;DHT22;71287;48.414;11.478;2024-03-02T01:18:15;6.90;99.90
9179;DHT22;71287;48.414;11.478;2024-03-02T01:20:42;7.00;99.90
9179;DHT22;71287;48.414;11.478;2024-03-02T01:23:10;7.00;99.90
9179;DHT22;71287;48.414;11.478;2024-03-02T01:25:36;7.00;99.90
9179;DHT22;71287;48.414;11.478;2024-03-02T01:28:04;7.00;99.90
9179;DHT22;71287;48.414;11.478;2024-03-02T01:30:31;7.00;99.90
9179;DHT22;71287;48.414;11.478;2024-03-02T01:32:57;7.00;99.90
9179;DHT22;71287;48.414;11.478;2024-03-02T01:35:25;7.10;99.90
9179;DHT22;71287;48.414;11.478;2024-03-02T01:37:53;7.10;99.90
9179;DHT22;71287;48.414;11.478;2024-03-02T01:40:21;7.10;99.90
9179;DHT22;71287;48.414;11.478;2024-03-02T01:42:51;7.10;99.90
9179;DHT22;71287;48.414;11.478;2024-03-02T01:45:18;7.10;99.90
9179;DHT22;71287;48.414;11.478;2024-03-02T01:47:45;7.10;99.90
9179;DHT22;71287;48.414;11.478;2024-03-02T01:50:12;7.10;99.90
9179;DHT22;71287;48.414;11.478;2024-03-02T01:52:39;7.10;99.90
9179;DHT22;71287;48.414;11.478;2024-03-02T01:55:06;7.10;99.90
9179;DHT22;71287;48.414;11.478;2024-03-02T01:57:34;7.00;99.90
9179;DHT22;71287;48.414;11.478;2024-03-02T02:00:02;7.10;99.90
9179;DHT22;71287;48.414;11.478;2024-03-02T02:02:29;7.00;99.90
9179;DHT22;71287;48.414;11.478;2024-03-02T02:04:55;7.00;99.90
9179;DHT22;71287;48.414;11.478;2024-03-02T02:07:22;7.00;99.90
9179;DHT22;71287;48.414;11.478;2024-03-02T02:09:49;7.00;99.90
9179;DHT22;71287;48.414;11.478;2024-03-02T02:12:16;7.00;99.90
9179;DHT22;71287;48.414;11.478;2024-03-02T02:14:48;7.00;99.90
9179;DHT22;71287;48.414;11.478;2024-03-02T02:17:15;7.00;99.90
9179;DHT22;71287;48.414;11.478;2024-03-02T02:19:42;7.00;99.90
9179;DHT22;71287;48.414;11.478;2024-03-02T02:22:10;7.00;99.90
9179;DHT22;71287;48.414;11.478;2024-03-02T02:24:39;7.00;99.90
9179;DHT22;71287;48.414;11.478;2024-03-02T02:27:06;7.00;99.90
9179;DHT22;71287;48.414;11.478;2024-03-02T02:29:33;7.00;99.90
9179;DHT22;71287;48.414;11.478;2024-03-02T02:32:00;7.10;99.90
9179;DHT22;71287;48.414;11.478;2024-03-02T02:34:28;7.10;99.90
9179;DHT22;71287;48.414;11.478;2024-03-02T02:36:55;7.10;99.90
9179;DHT22;71287;48.414;11.478;2024-03-02T02:39:23;7.10;99.90
9179;DHT22;71287;48.414;11.478;2024-03-02T02:41:49;7.10;99.90
9179;DHT22;71287;48.414;11.478;2024-03-02T02:44:16;7.10;99.90
9179;DHT22;71287;48.414;11.478;2024-03-02T02:46:43;7.10;99.90
9179;DHT22;71287;48.414;11.478;2024-03-02T02:49:09;7.10;99.90
9179;DHT22;71287;48.414;11.478;2024-03-02T02:51:36;7.00;99.90
9179;DHT22;71287;48.414;11.478;2024-03-02T02:54:03;7.00;99.90
9179;DHT22;71287;48.414;11.478;2024-03-02T02:56:31;6.90;99.90
9179;DHT22;71287;48.414;11.478;2024-03-02T02:58:58;6.80;99.90
9179;DHT22;71287;48.414;11.478;2024-03-02T03:01:25;6.60;99.90
9179;DHT22;71287;48.414;11.478;2024-03-02T03:03:52;6.50;99.90
9179;DHT22;71287;48.414;11.478;2024-03-02T03:06:19;6.40;99.90
9179;DHT22;71287;48.414;11.478;2024-03-02T03:08:45;6.40;99.90
9179;DHT22;71287;48.414;11.478;2024-03-02T03:11:12;6.50;99.90
9179;DHT22;71287;48.414;11.478;2024-03-02T03:13:41;6.50;99.90
9179;DHT22;71287;48.414;11.478;2024-03-02T03:16:08;6.50;99.90
9179;DHT22;71287;48.414;11.478;2024-03-02T03:18:34;6.50;99.90
9179;DHT22;71287;48.414;11.478;2024-03-02T03:21:01;6.60;99.90
9179;DHT22;71287;48.414;11.478;2024-03-02T03:23:28;6.60;99.90
9179;DHT22;71287;48.414;11.478;2024-03-02T03:25:55;6.60;99.90
9179;DHT22;71287;48.414;11.478;2024-03-02T03:28:21;6.60;99.90
9179;DHT22;71287;48.414;11.478;2024-03-02T03:30:50;6.60;99.90
9179;DHT22;71287;48.414;11.478;2024-03-02T03:33:16;6.60;99.90
9179;DHT22;71287;48.414;11.478;2024-03-02T03:35:43;6.50;99.90
9179;DHT22;71287;48.414;11.478;2024-03-02T03:38:10;6.50;99.90
9179;DHT22;71287;48.414;11.478;2024-03-02T03:40:37;6.50;99.90
9179;DHT22;71287;48.414;11.478;2024-03-02T03:43:04;6.50;99.90
9179;DHT22;71287;48.414;11.478;2024-03-02T03:45:30;6.50;99.90
9179;DHT22;71287;48.414;11.478;2024-03-02T03:47:58;6.50;99.90
9179;DHT22;71287;48.414;11.478;2024-03-02T03:50:25;6.50;99.90
9179;DHT22;71287;48.414;11.478;2024-03-02T03:52:52;6.50;99.90
9179;DHT22;71287;48.414;11.478;2024-03-02T03:55:19;6.50;99.90
9179;DHT22;71287;48.414;11.478;2024-03-02T03:57:45;6.50;99.90
9179;DHT22;71287;48.414;11.478;2024-03-02T04:00:13;6.50;99.90
9179;DHT22;71287;48.414;11.478;2024-03-02T04:02:40;6.50;99.90
9179;DHT22;71287;48.414;11.478;2024-03-02T04:05:08;6.50;99.90
9179;DHT22;71287;48.414;11.478;2024-03-02T04:07:36;6.50;99.90
9179;DHT22;71287;48.414;11.478;2024-03-02T04:10:07;6.50;99.90
9179;DHT22;71287;48.414;11.478;2024-03-02T04:12:35;6.60;99.90
9179;DHT22;71287;48.414;11.478;2024-03-02T04:15:02;6.60;99.90
9179;DHT22;71287;48.414;11.478;2024-03-02T04:17:30;6.60;99.90
9179;DHT22;71287;48.414;11.478;2024-03-02T04:19:57;6.70;99.90
9179;DHT22;71287;48.414;11.478;2024-03-02T04:22:26;6.70;99.90
9179;DHT22;71287;48.414;11.478;2024-03-02T04:24:52;6.70;99.90
9179;DHT22;71287;48.414;11.478;2024-03-02T04:27:19;6.70;99.90
9179;DHT22;71287;48.414;11.478;2024-03-02T04:29:46;6.70;99.90
9179;DHT22;71287;48.414;11.478;2024-03-02T04:32:13;6.80;99.90
9179;DHT22;71287;48.414;11.478;2024-03-02T04:34:39;6.80;99.90
9179;DHT22;71287;48.414;11.478;2024-03-02T04:37:06;6.80;99.90
9179;DHT22;71287;48.414;11.478;2024-03-02T04:39:35;6.80;99.90
9179;DHT22;71287;48.414;11.478;2024-03-02T04:42:02;6.80;99.90
9179;DHT22;71287;48.414;11.478;2024-03-02T04:44:29;6.80;99.90
9179;DHT22;71287;48.414;11.478;2024-03-02T04:46:56;6.80;99.90
9179;DHT22;71287;48.414;11.478;2024-03-02T04:49:23;6.80;99.90
9179;DHT22;71287;48.414;11.478;2024-03-02T04:51:50;6.80;99.90
9179;DHT22;71287;48.414;11.478;2024-03-02T04:54:17;6.80;99.90
9179;DHT22;71287;48.414;11.478;2024-03-02T04:56:45;6.80;99.90
9179;DHT22;71287;48.414;11.478;2024-03-02T04:59:15;6.80;99.90
9179;DHT22;71287;48.414;11.478;2024-03-02T05:01:42;6.80;99.90
9179;DHT22;71287;48.414;11.478;2024-03-02T05:04:09;6.80;99.90
9179;DHT22;71287;48.414;11.478;2024-03-02T05:06:37;6.80;99.90
9179;DHT22;71287;48.414;11.478;2024-03-02T05:09:04;6.80;99.90
9179;DHT22;71287;48.414;11.478;2024-03-02T05:11:31;6.80;99.90
9179;DHT22;71287;48.414;11.478;2024-03-02T05:14:28;6.80;99.90
9179;DHT22;71287;48.414;11.478;2024-03-02T05:16:55;6.80;99.90
9179;DHT22;71287;48.414;11.478;2024-03-02T05:19:21;6.70;99.90
9179;DHT22;71287;48.414;11.478;2024-03-02T05:21:48;6.80;99.90
9179;DHT22;71287;48.414;11.478;2024-03-02T05:24:15;6.70;99.90
9179;DHT22;71287;48.414;11.478;2024-03-02T05:26:42;6.70;99.90
9179;DHT22;71287;48.414;11.478;2024-03-02T05:29:09;6.70;99.90
9179;DHT22;71287;48.414;11.478;2024-03-02T05:31:37;6.70;99.90
9179;DHT22;71287;48.414;11.478;2024-03-02T05:34:03;6.70;99.90
9179;DHT22;71287;48.414;11.478;2024-03-02T05:36:30;6.60;99.90
9179;DHT22;71287;48.414;11.478;2024-03-02T05:38:57;6.60;99.90
9179;DHT22;71287;48.414;11.478;2024-03-02T05:41:24;6.60;99.90
9179;DHT22;71287;48.414;11.478;2024-03-02T05:43:51;6.50;99.90
9179;DHT22;71287;48.414;11.478;2024-03-02T05:46:17;6.50;99.90
9179;DHT22;71287;48.414;11.478;2024-03-02T05:48:45;6.50;99.90
9179;DHT22;71287;48.414;11.478;2024-03-02T05:51:12;6.50;99.90
9179;DHT22;71287;48.414;11.478;2024-03-02T05:53:39;6.50;99.90
9179;DHT22;71287;48.414;11.478;2024-03-02T05:56:06;6.50;99.90
9179;DHT22;71287;48.414;11.478;2024-03-02T05:58:33;6.50;99.90
9179;DHT22;71287;48.414;11.478;2024-03-02T06:01:13;6.50;99.90
9179;DHT22;71287;48.414;11.478;2024-03-02T06:03:40;6.50;99.90
9179;DHT22;71287;48.414;11.478;2024-03-02T06:06:08;6.50;99.90
9179;DHT22;71287;48.414;11.478;2024-03-02T06:08:35;6.40;99.90
9179;DHT22;71287;48.414;11.478;2024-03-02T06:11:01;6.50;99.90
9179;DHT22;71287;48.414;11.478;2024-03-02T06:13:28;6.50;99.90
9179;DHT22;71287;48.414;11.478;2024-03-02T06:15:55;6.60;99.90
9179;DHT22;71287;48.414;11.478;2024-03-02T06:18:21;6.60;99.90
9179;DHT22;71287;48.414;11.478;2024-03-02T06:20:48;6.70;99.90
9179;DHT22;71287;48.414;11.478;2024-03-02T06:23:16;6.80;99.90
9179;DHT22;71287;48.414;11.478;2024-03-02T06:25:43;6.80;99.90
9179;DHT22;71287;48.414;11.478;2024-03-02T06:28:10;6.90;99.90
9179;DHT22;71287;48.414;11.478;2024-03-02T06:30:37;7.00;99.90
9179;DHT22;71287;48.414;11.478;2024-03-02T06:33:04;7.00;99.90
9179;DHT22;71287;48.414;11.478;2024-03-02T06:35:31;7.20;99.90
9179;DHT22;71287;48.414;11.478;2024-03-02T06:37:58;7.30;99.90
9179;DHT22;71287;48.414;11.478;2024-03-02T06:40:26;7.40;99.90
9179;DHT22;71287;48.414;11.478;2024-03-02T06:42:53;7.70;99.90
9179;DHT22;71287;48.414;11.478;2024-03-02T06:45:19;7.90;99.90
9179;DHT22;71287;48.414;11.478;2024-03-02T06:47:46;8.10;99.90
9179;DHT22;71287;48.414;11.478;2024-03-02T06:50:13;8.20;99.90
9179;DHT22;71287;48.414;11.478;2024-03-02T06:52:40;8.40;99.90
9179;DHT22;71287;48.414;11.478;2024-03-02T06:55:07;8.60;99.90
9179;DHT22;71287;48.414;11.478;2024-03-02T06:57:35;9.00;99.90
9179;DHT22;71287;48.414;11.478;2024-03-02T07:00:01;9.50;99.90
9179;DHT22;71287;48.414;11.478;2024-03-02T07:02:30;10.00;99.90
9179;DHT22;71287;48.414;11.478;2024-03-02T07:04:57;10.50;99.90
9179;DHT22;71287;48.414;11.478;2024-03-02T07:07:24;11.00;99.90
9179;DHT22;71287;48.414;11.478;2024-03-02T07:09:51;11.30;99.90
9179;DHT22;71287;48.414;11.478;2024-03-02T07:12:18;11.50;99.90
9179;DHT22;71287;48.414;11.478;2024-03-02T07:14:46;11.70;99.90
9179;DHT22;71287;48.414;11.478;2024-03-02T07:17:37;11.70;99.90
9179;DHT22;71287;48.414;11.478;2024-03-02T07:20:04;12.00;99.90
9179;DHT22;71287;48.414;11.478;2024-03-02T07:22:32;12.30;99.90
9179;DHT22;71287;48.414;11.478;2024-03-02T07:24:59;12.90;99.90
9179;DHT22;71287;48.414;11.478;2024-03-02T07:27:25;13.50;99.90
9179;DHT22;71287;48.414;11.478;2024-03-02T07:29:53;14.50;99.90
9179;DHT22;71287;48.414;11.478;2024-03-02T07:32:21;15.40;99.90
9179;DHT22;71287;48.414;11.478;2024-03-02T07:34:47;15.90;99.90
9179;DHT22;71287;48.414;11.478;2024-03-02T07:37:16;16.40;99.90
9179;DHT22;71287;48.414;11.478;2024-03-02T07:39:44;16.50;99.90
9179;DHT22;71287;48.414;11.478;2024-03-02T07:42:11;15.70;99.90
9179;DHT22;71287;48.414;11.478;2024-03-02T07:44:37;16.40;99.90
9179;DHT22;71287;48.414;11.478;2024-03-02T07:47:06;18.10;99.90
9179;DHT22;71287;48.414;11.478;2024-03-02T07:49:33;19.60;98.40
9179;DHT22;71287;48.414;11.478;2024-03-02T07:52:00;20.90;96.00
9179;DHT22;71287;48.414;11.478;2024-03-02T07:54:27;21.90;93.30
9179;DHT22;71287;48.414;11.478;2024-03-02T07:56:53;22.80;90.70
9179;DHT22;71287;48.414;11.478;2024-03-02T07:59:20;23.20;85.90
9179;DHT22;71287;48.414;11.478;2024-03-02T08:01:48;22.10;85.80
9179;DHT22;71287;48.414;11.478;2024-03-02T08:04:17;23.20;82.30
9179;DHT22;71287;48.414;11.478;2024-03-02T08:06:45;23.00;77.90
9179;DHT22;71287;48.414;11.478;2024-03-02T08:09:12;20.80;81.50
9179;DHT22;71287;48.414;11.478;2024-03-02T08:11:39;19.30;84.50
9179;DHT22;71287;48.414;11.478;2024-03-02T08:14:06;18.20;87.80
9179;DHT22;71287;48.414;11.478;2024-03-02T08:16:33;17.50;90.20
9179;DHT22;71287;48.414;11.478;2024-03-02T08:18:59;16.90;91.00
9179;DHT22;71287;48.414;11.478;2024-03-02T08:21:27;16.30;91.40
9179;DHT22;71287;48.414;11.478;2024-03-02T08:23:56;15.80;91.90
9179;DHT22;71287;48.414;11.478;2024-03-02T08:26:23;15.40;93.00
9179;DHT22;71287;48.414;11.478;2024-03-02T08:28:50;15.10;93.60
9179;DHT22;71287;48.414;11.478;2024-03-02T08:31:16;15.10;94.10
9179;DHT22;71287;48.414;11.478;2024-03-02T08:33:43;15.00;94.50
9179;DHT22;71287;48.414;11.478;2024-03-02T08:36:10;14.90;94.30
9179;DHT22;71287;48.414;11.478;2024-03-02T08:38:38;14.80;94.60
9179;DHT22;71287;48.414;11.478;2024-03-02T08:41:05;14.70;94.70
9179;DHT22;71287;48.414;11.478;2024-03-02T08:43:33;14.60;95.00
9179;DHT22;71287;48.414;11.478;2024-03-02T08:46:00;14.60;94.70
9179;DHT22;71287;48.414;11.478;2024-03-02T08:48:27;14.70;95.10
9179;DHT22;71287;48.414;11.478;2024-03-02T08:50:53;14.60;95.10
9179;DHT22;71287;48.414;11.478;2024-03-02T08:53:20;14.50;95.20
9179;DHT22;71287;48.414;11.478;2024-03-02T08:55:48;14.40;95.50
9179;DHT22;71287;48.414;11.478;2024-03-02T08:58:15;14.50;95.70
9179;DHT22;71287;48.414;11.478;2024-03-02T09:00:42;14.50;96.00
9179;DHT22;71287;48.414;11.478;2024-03-02T09:03:09;14.70;96.10
9179;DHT22;71287;48.414;11.478;2024-03-02T09:05:36;14.70;95.80
9179;DHT22;71287;48.414;11.478;2024-03-02T09:08:03;14.80;95.80
9179;DHT22;71287;48.414;11.478;2024-03-02T09:10:30;14.80;96.00
9179;DHT22;71287;48.414;11.478;2024-03-02T09:12:58;14.60;96.10
9179;DHT22;71287;48.414;11.478;2024-03-02T09:15:25;14.40;96.10
9179;DHT22;71287;48.414;11.478;2024-03-02T09:17:51;14.20;96.10
9179;DHT22;71287;48.414;11.478;2024-03-02T09:20:18;13.90;96.20
9179;DHT22;71287;48.414;11.478;2024-03-02T09:22:45;13.70;96.70
9179;DHT22;71287;48.414;11.478;2024-03-02T09:25:13;13.70;97.10
9179;DHT22;71287;48.414;11.478;2024-03-02T09:27:39;13.80;97.20
9179;DHT22;71287;48.414;11.478;2024-03-02T09:30:10;13.60;97.50
9179;DHT22;71287;48.414;11.478;2024-03-02T09:32:37;13.40;97.60
9179;DHT22;71287;48.414;11.478;2024-03-02T09:35:04;13.00;97.90
9179;DHT22;71287;48.414;11.478;2024-03-02T09:37:31;12.70;98.10
9179;DHT22;71287;48.414;11.478;2024-03-02T09:39:58;12.50;98.00
9179;DHT22;71287;48.414;11.478;2024-03-02T09:42:24;12.30;98.40
9179;DHT22;71287;48.414;11.478;2024-03-02T09:44:52;12.20;98.70
9179;DHT22;71287;48.414;11.478;2024-03-02T09:47:20;12.10;98.90
9179;DHT22;71287;48.414;11.478;2024-03-02T09:49:47;11.90;99.20
9179;DHT22;71287;48.414;11.478;2024-03-02T09:52:14;11.70;98.90
9179;DHT22;71287;48.414;11.478;2024-03-02T09:54:41;11.80;99.40
9179;DHT22;71287;48.414;11.478;2024-03-02T09:57:08;11.80;99.40
9179;DHT22;71287;48.414;11.478;2024-03-02T09:59:35;11.90;99.80
9179;DHT22;71287;48.414;11.478;2024-03-02T10:02:02;12.00;99.60
9179;DHT22;71287;48.414;11.478;2024-03-02T10:04:31;12.00;99.30
9179;DHT22;71287;48.414;11.478;2024-03-02T10:07:14;12.00;99.00
9179;DHT22;71287;48.414;11.478;2024-03-02T10:09:42;12.00;99.30
9179;DHT22;71287;48.414;11.478;2024-03-02T10:12:10;12.00;99.50
9179;DHT22;71287;48.414;11.478;2024-03-02T10:14:38;12.10;99.70
9179;DHT22;71287;48.414;11.478;2024-03-02T10:17:06;12.20;99.70
9179;DHT22;71287;48.414;11.478;2024-03-02T10:19:36;12.30;99.90
9179;DHT22;71287;48.414;11.478;2024-03-02T10:22:04;12.50;99.90
9179;DHT22;71287;48.414;11.478;2024-03-02T10:24:36;12.40;99.80
9179;DHT22;71287;48.414;11.478;2024-03-02T10:27:07;12.40;99.90
9179;DHT22;71287;48.414;11.478;2024-03-02T10:29:37;12.30;99.90
9179;DHT22;71287;48.414;11.478;2024-03-02T10:32:05;12.10;99.90
9179;DHT22;71287;48.414;11.478;2024-03-02T10:34:32;12.10;99.90
9179;DHT22;71287;48.414;11.478;2024-03-02T10:37:00;12.10;99.90
9179;DHT22;71287;48.414;11.478;2024-03-02T10:39:28;12.00;99.90
9179;DHT22;71287;48.414;11.478;2024-03-02T10:41:55;12.00;99.90
9179;DHT22;71287;48.414;11.478;2024-03-02T10:44:23;12.00;99.90
9179;DHT22;71287;48.414;11.478;2024-03-02T10:46:50;12.00;99.90
9179;DHT22;71287;48.414;11.478;2024-03-02T10:49:19;12.10;99.90
9179;DHT22;71287;48.414;11.478;2024-03-02T10:51:47;12.20;99.90
9179;DHT22;71287;48.414;11.478;2024-03-02T10:54:15;12.40;99.90
9179;DHT22;71287;48.414;11.478;2024-03-02T10:56:44;12.50;99.90
9179;DHT22;71287;48.414;11.478;2024-03-02T10:59:18;12.60;99.90
9179;DHT22;71287;48.414;11.478;2024-03-02T11:01:48;12.70;99.90
9179;DHT22;71287;48.414;11.478;2024-03-02T11:04:17;12.80;99.90
9179;DHT22;71287;48.414;11.478;2024-03-02T11:06:50;12.80;99.90
9179;DHT22;71287;48.414;11.478;2024-03-02T11:09:19;12.90;99.90
9179;DHT22;71287;48.414;11.478;2024-03-02T11:11:54;12.80;99.90
9179;DHT22;71287;48.414;11.478;2024-03-02T11:14:24;12.80;99.90
9179;DHT22;71287;48.414;11.478;2024-03-02T11:16:52;12.80;99.90
9179;DHT22;71287;48.414;11.478;2024-03-02T11:19:19;12.70;99.90
9179;DHT22;71287;48.414;11.478;2024-03-02T11:21:47;12.70;99.90
9179;DHT22;71287;48.414;11.478;2024-03-02T11:24:32;12.80;99.90
9179;DHT22;71287;48.414;11.478;2024-03-02T11:26:59;12.70;99.90
9179;DHT22;71287;48.414;11.478;2024-03-02T11:29:45;12.80;99.90
9179;DHT22;71287;48.414;11.478;2024-03-02T11:32:22;12.80;99.90
9179;DHT22;71287;48.414;11.478;2024-03-02T11:34:50;12.90;99.90
9179;DHT22;71287;48.414;11.478;2024-03-02T11:37:18;12.90;99.90
9179;DHT22;71287;48.414;11.478;2024-03-02T11:39:48;12.80;99.90
9179;DHT22;71287;48.414;11.478;2024-03-02T11:42:16;12.80;99.90
9179;DHT22;71287;48.414;11.478;2024-03-02T11:44:45;12.70;99.90
9179;DHT22;71287;48.414;11.478;2024-03-02T11:47:14;12.80;99.90
9179;DHT22;71287;48.414;11.478;2024-03-02T11:49:42;12.80;99.90
9179;DHT22;71287;48.414;11.478;2024-03-02T11:52:11;12.90;99.90
9179;DHT22;71287;48.414;11.478;2024-03-02T11:54:39;13.00;99.90
9179;DHT22;71287;48.414;11.478;2024-03-02T11:57:08;13.20;99.90
9179;DHT22;71287;48.414;11.478;2024-03-02T11:59:35;13.40;99.90
9179;DHT22;71287;48.414;11.478;2024-03-02T12:02:02;13.40;99.90
9179;DHT22;71287;48.414;11.478;2024-03-02T12:04:29;13.40;99.90
9179;DHT22;71287;48.414;11.478;2024-03-02T12:06:57;13.40;99.90
9179;DHT22;71287;48.414;11.478;2024-03-02T12:09:26;13.40;99.90
9179;DHT22;71287;48.414;11.478;2024-03-02T12:12:02;13.40;99.90
9179;DHT22;71287;48.414;11.478;2024-03-02T12:14:31;13.30;99.90
9179;DHT22;71287;48.414;11.478;2024-03-02T12:16:58;13.30;99.90
9179;DHT22;71287;48.414;11.478;2024-03-02T12:19:25;13.20;99.80
9179;DHT22;71287;48.414;11.478;2024-03-02T12:21:52;13.10;99.60
9179;DHT22;71287;48.414;11.478;2024-03-02T12:24:20;13.10;98.70
9179;DHT22;71287;48.414;11.478;2024-03-02T12:26:48;13.10;99.30
9179;DHT22;71287;48.414;11.478;2024-03-02T12:29:15;13.10;99.20
9179;DHT22;71287;48.414;11.478;2024-03-02T12:31:43;13.00;99.10
9179;DHT22;71287;48.414;11.478;2024-03-02T12:34:12;13.10;99.10
9179;DHT22;71287;48.414;11.478;2024-03-02T12:36:40;13.00;98.60
9179;DHT22;71287;48.414;11.478;2024-03-02T12:39:07;13.00;99.30
9179;DHT22;71287;48.414;11.478;2024-03-02T12:41:36;13.00;98.90
9179;DHT22;71287;48.414;11.478;2024-03-02T12:44:04;13.00;99.30
9179;DHT22;71287;48.414;11.478;2024-03-02T12:46:30;13.00;99.40
9179;DHT22;71287;48.414;11.478;2024-03-02T12:49:07;13.00;99.20
9179;DHT22;71287;48.414;11.478;2024-03-02T12:51:34;12.90;98.90
9179;DHT22;71287;48.414;11.478;2024-03-02T12:54:01;12.90;99.10
9179;DHT22;71287;48.414;11.478;2024-03-02T12:56:31;13.00;98.80
9179;DHT22;71287;48.414;11.478;2024-03-02T12:58:58;13.00;99.00
9179;DHT22;71287;48.414;11.478;2024-03-02T13:01:25;12.90;98.60
9179;DHT22;71287;48.414;11.478;2024-03-02T13:03:53;12.80;98.60
9179;DHT22;71287;48.414;11.478;2024-03-02T13:06:22;12.80;98.70
9179;DHT22;71287;48.414;11.478;2024-03-02T13:08:49;12.90;98.70
9179;DHT22;71287;48.414;11.478;2024-03-02T13:11:16;12.90;98.30
9179;DHT22;71287;48.414;11.478;2024-03-02T13:13:43;12.90;98.50
9179;DHT22;71287;48.414;11.478;2024-03-02T13:16:10;12.90;99.10
9179;DHT22;71287;48.414;11.478;2024-03-02T13:18:38;12.90;99.30
9179;DHT22;71287;48.414;11.478;2024-03-02T13:21:06;12.90;99.50
9179;DHT22;71287;48.414;11.478;2024-03-02T13:23:34;12.90;99.50
9179;DHT22;71287;48.414;11.478;2024-03-02T13:26:01;12.90;99.50
9179;DHT22;71287;48.414;11.478;2024-03-02T13:28:28;12.90;99.20
9179;DHT22;71287;48.414;11.478;2024-03-02T13:30:54;12.90;99.70
9179;DHT22;71287;48.414;11.478;2024-03-02T13:33:21;12.90;99.30
9179;DHT22;71287;48.414;11.478;2024-03-02T13:35:49;12.90;99.40
9179;DHT22;71287;48.414;11.478;2024-03-02T13:38:16;12.90;99.30
9179;DHT22;71287;48.414;11.478;2024-03-02T13:40:44;12.90;99.00
9179;DHT22;71287;48.414;11.478;2024-03-02T13:43:11;12.80;98.70
9179;DHT22;71287;48.414;11.478;2024-03-02T13:45:38;12.70;99.00
9179;DHT22;71287;48.414;11.478;2024-03-02T13:48:06;12.70;99.20
9179;DHT22;71287;48.414;11.478;2024-03-02T13:50:32;12.70;99.10
9179;DHT22;71287;48.414;11.478;2024-03-02T13:52:59;12.80;99.00
9179;DHT22;71287;48.414;11.478;2024-03-02T13:55:26;12.80;99.40
9179;DHT22;71287;48.414;11.478;2024-03-02T13:57:54;12.90;98.90
9179;DHT22;71287;48.414;11.478;2024-03-02T14:00:21;12.80;99.10
9179;DHT22;71287;48.414;11.478;2024-03-02T14:02:48;12.80;99.20
9179;DHT22;71287;48.414;11.478;2024-03-02T14:05:15;12.80;99.10
9179;DHT22;71287;48.414;11.478;2024-03-02T14:07:42;12.90;99.00
9179;DHT22;71287;48.414;11.478;2024-03-02T14:10:09;12.90;99.10
9179;DHT22;71287;48.414;11.478;2024-03-02T14:12:37;12.90;98.90
9179;DHT22;71287;48.414;11.478;2024-03-02T14:15:06;12.90;99.20
9179;DHT22;71287;48.414;11.478;2024-03-02T14:17:34;12.90;99.40
9179;DHT22;71287;48.414;11.478;2024-03-02T14:20:00;12.90;99.30
9179;DHT22;71287;48.414;11.478;2024-03-02T14:22:27;12.90;99.40
9179;DHT22;71287;48.414;11.478;2024-03-02T14:24:54;12.90;99.40
9179;DHT22;71287;48.414;11.478;2024-03-02T14:27:21;12.90;99.50
9179;DHT22;71287;48.414;11.478;2024-03-02T14:29:47;12.90;99.90
9179;DHT22;71287;48.414;11.478;2024-03-02T14:32:15;13.00;99.90
9179;DHT22;71287;48.414;11.478;2024-03-02T14:34:42;13.00;99.80
9179;DHT22;71287;48.414;11.478;2024-03-02T14:37:12;13.00;99.60
9179;DHT22;71287;48.414;11.478;2024-03-02T14:39:38;13.10;99.60
9179;DHT22;71287;48.414;11.478;2024-03-02T14:42:05;13.00;99.50
9179;DHT22;71287;48.414;11.478;2024-03-02T14:44:33;13.00;99.50
9179;DHT22;71287;48.414;11.478;2024-03-02T14:47:00;13.00;99.50
9179;DHT22;71287;48.414;11.478;2024-03-02T14:49:29;13.00;99.40
9179;DHT22;71287;48.414;11.478;2024-03-02T14:51:55;12.90;99.20
9179;DHT22;71287;48.414;11.478;2024-03-02T14:54:22;12.80;99.30
9179;DHT22;71287;48.414;11.478;2024-03-02T14:56:49;12.70;99.50
9179;DHT22;71287;48.414;11.478;2024-03-02T14:59:17;12.70;99.60
9179;DHT22;71287;48.414;11.478;2024-03-02T15:01:44;12.60;99.20
9179;DHT22;71287;48.414;11.478;2024-03-02T15:04:11;12.50;99.10
9179;DHT22;71287;48.414;11.478;2024-03-02T15:06:40;12.40;99.50
9179;DHT22;71287;48.414;11.478;2024-03-02T15:09:07;12.30;99.80
9179;DHT22;71287;48.414;11.478;2024-03-02T15:11:34;12.20;99.80
9179;DHT22;71287;48.414;11.478;2024-03-02T15:14:01;12.20;99.90
9179;DHT22;71287;48.414;11.478;2024-03-02T15:16:28;12.10;99.90
9179;DHT22;71287;48.414;11.478;2024-03-02T15:18:55;12.10;99.90
9179;DHT22;71287;48.414;11.478;2024-03-02T15:21:21;12.10;99.90
9179;DHT22;71287;48.414;11.478;2024-03-02T15:23:49;12.00;99.90
9179;DHT22;71287;48.414;11.478;2024-03-02T15:26:17;12.00;99.90
9179;DHT22;71287;48.414;11.478;2024-03-02T15:28:43;11.90;99.90
9179;DHT22;71287;48.414;11.478;2024-03-02T15:31:10;11.90;99.90
9179;DHT22;71287;48.414;11.478;2024-03-02T15:33:37;11.80;99.90
9179;DHT22;71287;48.414;11.478;2024-03-02T15:36:05;11.80;99.90
9179;DHT22;71287;48.414;11.478;2024-03-02T15:38:31;11.80;99.90
9179;DHT22;71287;48.414;11.478;2024-03-02T15:41:03;11.70;99.90
9179;DHT22;71287;48.414;11.478;2024-03-02T15:43:30;11.70;99.90